createdAt,value
2022-11-10T00:02:44.910Z,5.28
2022-11-10T00:05:33.452Z,5.05
2022-11-10T00:08:21.424Z,5.10
2022-11-10T00:11:10.061Z,4.78
2022-11-10T00:14:15.982Z,4.88
2022-11-10T00:17:05.744Z,3.88
2022-11-10T00:19:53.637Z,4.18
2022-11-10T00:22:42.346Z,3.92
2022-11-10T00:25:30.821Z,4.00
2022-11-10T00:28:22.161Z,3.60
2022-11-10T00:31:10.907Z,3.42
2022-11-10T00:33:59.494Z,4.07
2022-11-10T00:36:48.194Z,3.90
2022-11-10T00:39:36.481Z,4.18
2022-11-10T00:42:24.337Z,3.67
2022-11-10T00:45:13.018Z,4.00
2022-11-10T00:48:01.382Z,4.35
2022-11-10T00:50:49.653Z,4.10
2022-11-10T00:53:37.913Z,3.75
2022-11-10T00:56:29.617Z,3.85
2022-11-10T00:59:17.982Z,4.00
2022-11-10T01:02:06.475Z,3.83
2022-11-10T01:04:55.236Z,3.42
2022-11-10T01:07:43.627Z,3.58
2022-11-10T01:10:32.018Z,3.03
2022-11-10T01:13:20.566Z,3.40
2022-11-10T01:16:14.244Z,4.13
2022-11-10T01:19:05.770Z,3.50
2022-11-10T01:21:53.952Z,3.72
2022-11-10T01:24:43.008Z,3.95
2022-11-10T01:27:31.064Z,3.47
2022-11-10T01:30:19.223Z,3.40
2022-11-10T01:33:07.370Z,3.45
2022-11-10T01:35:55.985Z,3.63
2022-11-10T01:38:44.607Z,4.13
2022-11-10T01:41:33.014Z,3.78
2022-11-10T01:44:23.254Z,4.18
2022-11-10T01:47:11.268Z,3.58
2022-11-10T01:50:09.691Z,3.28
2022-11-10T01:53:01.772Z,3.85
2022-11-10T01:55:51.139Z,3.60
2022-11-10T01:58:41.376Z,4.05
2022-11-10T02:01:29.505Z,3.70
2022-11-10T02:04:19.280Z,3.70
2022-11-10T02:07:07.618Z,3.47
2022-11-10T02:09:55.992Z,3.65
2022-11-10T02:12:44.405Z,3.72
2022-11-10T02:15:32.733Z,3.83
2022-11-10T02:18:20.649Z,3.58
2022-11-10T02:21:10.449Z,4.05
2022-11-10T02:23:58.500Z,3.90
2022-11-10T02:27:05.927Z,3.75
2022-11-10T02:29:54.252Z,3.67
2022-11-10T02:32:42.643Z,3.33
2022-11-10T02:35:31.523Z,4.28
2022-11-10T02:38:19.756Z,3.70
2022-11-10T02:41:07.634Z,3.83
2022-11-10T02:43:56.229Z,3.72
2022-11-10T02:46:44.271Z,4.00
2022-11-10T02:49:32.568Z,3.97
2022-11-10T02:52:20.674Z,4.35
2022-11-10T02:55:09.795Z,3.65
2022-11-10T02:57:57.736Z,3.97
2022-11-10T03:00:46.209Z,3.80
2022-11-10T03:03:34.859Z,3.55
2022-11-10T03:06:22.809Z,3.30
2022-11-10T03:09:11.113Z,3.67
2022-11-10T03:11:59.451Z,3.55
2022-11-10T03:14:48.467Z,3.95
2022-11-10T03:17:36.514Z,4.03
2022-11-10T03:20:25.058Z,4.20
2022-11-10T03:23:13.280Z,3.70
2022-11-10T03:26:01.347Z,3.92
2022-11-10T03:28:49.381Z,4.53
2022-11-10T03:31:37.462Z,4.38
2022-11-10T03:34:29.398Z,4.80
2022-11-10T03:37:20.192Z,4.50
2022-11-10T03:40:09.458Z,4.47
2022-11-10T03:42:57.845Z,4.13
2022-11-10T03:45:49.268Z,4.45
2022-11-10T03:48:37.510Z,4.22
2022-11-10T03:51:25.592Z,4.88
2022-11-10T03:54:13.852Z,4.40
2022-11-10T03:57:01.892Z,5.10
2022-11-10T03:59:50.099Z,4.32
2022-11-10T04:02:39.255Z,4.80
2022-11-10T04:05:46.527Z,5.00
2022-11-10T04:08:52.880Z,4.97
2022-11-10T04:11:59.170Z,5.13
2022-11-10T04:15:05.333Z,5.00
2022-11-10T04:17:53.406Z,4.82
2022-11-10T04:20:41.785Z,5.90
2022-11-10T04:23:32.731Z,6.10
2022-11-10T04:26:34.090Z,5.70
2022-11-10T04:29:22.495Z,5.60
2022-11-10T04:32:10.469Z,6.20
2022-11-10T04:34:59.276Z,5.70
2022-11-10T04:37:49.012Z,6.30
2022-11-10T04:40:37.727Z,5.68
2022-11-10T04:43:26.132Z,6.10
2022-11-10T04:46:24.768Z,5.68
2022-11-10T04:49:13.518Z,6.13
2022-11-10T04:52:02.191Z,6.15
2022-11-10T04:54:50.693Z,5.22
2022-11-10T04:57:39.768Z,5.57
2022-11-10T05:00:28.315Z,5.57
2022-11-10T05:03:17.028Z,5.25
2022-11-10T05:06:06.434Z,5.20
2022-11-10T05:08:55.158Z,5.20
2022-11-10T05:11:43.494Z,5.15
2022-11-10T05:14:32.927Z,5.38
2022-11-10T05:17:21.536Z,5.38
2022-11-10T05:20:11.389Z,4.68
2022-11-10T05:23:17.657Z,4.50
2022-11-10T05:26:07.233Z,4.80
2022-11-10T05:28:55.492Z,5.22
2022-11-10T05:31:45.845Z,4.50
2022-11-10T05:34:37.122Z,5.30
2022-11-10T05:37:25.199Z,4.60
2022-11-10T05:40:13.612Z,4.70
2022-11-10T05:43:01.707Z,4.63
2022-11-10T05:45:49.611Z,4.72
2022-11-10T05:48:37.814Z,4.88
2022-11-10T05:51:26.239Z,4.80
2022-11-10T05:54:14.695Z,4.53
2022-11-10T05:57:03.595Z,4.60
2022-11-10T05:59:53.333Z,4.55
2022-11-10T06:02:41.722Z,4.63
2022-11-10T06:05:31.520Z,4.55
2022-11-10T06:08:20.802Z,4.50
2022-11-10T06:11:09.552Z,4.75
2022-11-10T06:13:57.875Z,4.85
2022-11-10T06:16:48.566Z,4.45
2022-11-10T06:19:36.746Z,4.45
2022-11-10T06:22:24.996Z,4.65
2022-11-10T06:25:16.464Z,4.63
2022-11-10T06:28:05.515Z,4.45
2022-11-10T06:30:53.936Z,4.57
2022-11-10T06:33:44.146Z,4.70
2022-11-10T06:36:32.618Z,5.07
2022-11-10T06:39:21.045Z,4.50
2022-11-10T06:42:09.160Z,4.70
2022-11-10T06:44:58.368Z,5.03
2022-11-10T06:47:46.646Z,4.20
2022-11-10T06:50:35.860Z,4.00
2022-11-10T06:53:26.995Z,4.90
2022-11-10T06:56:15.632Z,4.53
2022-11-10T06:59:03.828Z,4.60
2022-11-10T07:01:52.299Z,4.38
2022-11-10T07:04:40.690Z,5.18
2022-11-10T07:07:28.821Z,4.35
2022-11-10T07:10:17.265Z,4.93
2022-11-10T07:13:06.135Z,4.88
2022-11-10T07:15:54.229Z,4.85
2022-11-10T07:18:42.303Z,4.50
2022-11-10T07:21:30.712Z,4.57
2022-11-10T07:24:19.410Z,4.93
2022-11-10T07:27:09.562Z,4.97
2022-11-10T07:30:03.172Z,4.28
2022-11-10T07:33:23.363Z,4.30
2022-11-10T07:36:11.843Z,4.53
2022-11-10T07:39:00.298Z,4.72
2022-11-10T07:41:52.257Z,4.22
2022-11-10T07:44:41.028Z,4.57
2022-11-10T07:47:29.635Z,4.68
2022-11-10T07:50:18.091Z,4.70
2022-11-10T07:53:07.812Z,5.32
2022-11-10T07:55:56.623Z,4.88
2022-11-10T07:58:44.825Z,5.07
2022-11-10T08:01:32.930Z,4.78
2022-11-10T08:04:21.206Z,4.40
2022-11-10T08:07:09.667Z,3.95
2022-11-10T08:09:59.307Z,4.57
2022-11-10T08:12:47.632Z,4.57
2022-11-10T08:15:35.856Z,4.53
2022-11-10T08:18:24.908Z,4.38
2022-11-10T08:21:13.099Z,4.18
2022-11-10T08:24:01.236Z,4.45
2022-11-10T08:26:49.329Z,4.57
2022-11-10T08:29:37.354Z,4.28
2022-11-10T08:32:25.612Z,3.78
2022-11-10T08:35:13.946Z,5.07
2022-11-10T08:38:09.674Z,3.88
2022-11-10T08:40:58.743Z,4.25
2022-11-10T08:43:47.207Z,4.40
2022-11-10T08:46:35.717Z,3.90
2022-11-10T08:49:24.230Z,4.13
2022-11-10T08:52:12.547Z,4.20
2022-11-10T08:55:00.675Z,4.05
2022-11-10T08:57:49.650Z,4.38
2022-11-10T09:00:38.090Z,4.18
2022-11-10T09:03:27.106Z,3.67
2022-11-10T09:06:15.824Z,3.80
2022-11-10T09:09:03.792Z,3.85
2022-11-10T09:11:52.201Z,4.20
2022-11-10T09:14:40.062Z,3.75
2022-11-10T09:17:28.131Z,4.25
2022-11-10T09:20:18.763Z,3.45
2022-11-10T09:23:08.634Z,3.97
2022-11-10T09:25:57.408Z,3.75
2022-11-10T09:28:45.566Z,3.90
2022-11-10T09:31:33.948Z,4.28
2022-11-10T09:34:22.083Z,3.70
2022-11-10T09:37:10.207Z,3.58
2022-11-10T09:40:01.391Z,3.70
2022-11-10T09:42:49.810Z,4.03
2022-11-10T09:45:41.145Z,3.90
2022-11-10T09:48:39.041Z,3.70
2022-11-10T09:51:29.497Z,4.13
2022-11-10T09:54:29.671Z,3.45
2022-11-10T09:57:20.576Z,3.67
2022-11-10T10:00:19.673Z,3.90
2022-11-10T10:03:09.273Z,3.75
2022-11-10T10:06:12.634Z,3.95
2022-11-10T10:09:22.331Z,3.97
2022-11-10T10:12:29.124Z,3.30
2022-11-10T10:15:40.320Z,3.00
2022-11-10T10:18:49.542Z,3.13
2022-11-10T10:22:01.687Z,3.47
2022-11-10T10:24:51.028Z,3.20
2022-11-10T10:27:39.994Z,2.83
2022-11-10T10:30:28.268Z,2.88
2022-11-10T10:33:18.593Z,3.22
2022-11-10T10:36:16.628Z,3.08
2022-11-10T10:39:12.443Z,3.50
2022-11-10T10:42:00.769Z,2.90
2022-11-10T10:45:22.194Z,2.60
2022-11-10T10:48:27.743Z,2.70
2022-11-10T10:51:31.774Z,2.92
2022-11-10T10:54:30.106Z,3.00
2022-11-10T10:57:25.577Z,3.08
2022-11-10T11:00:21.541Z,3.03
2022-11-10T11:03:27.624Z,2.70
2022-11-10T11:06:18.856Z,2.92
2022-11-10T11:09:21.181Z,2.55
2022-11-10T11:12:31.179Z,2.78
2022-11-10T11:15:28.534Z,2.90
2022-11-10T11:18:18.575Z,2.90
2022-11-10T11:21:18.955Z,2.58
2022-11-10T11:24:07.565Z,2.88
2022-11-10T11:26:55.797Z,2.90
2022-11-10T11:29:46.762Z,2.95
2022-11-10T11:32:54.000Z,3.05
2022-11-10T11:35:52.249Z,2.70
2022-11-10T11:38:40.429Z,2.72
2022-11-10T11:41:43.855Z,3.20
2022-11-10T11:45:16.730Z,2.67
2022-11-10T11:48:21.160Z,2.72
2022-11-10T11:51:20.067Z,2.95
2022-11-10T11:54:46.257Z,3.13
2022-11-10T11:58:07.529Z,2.80
2022-11-10T12:01:25.701Z,2.80
2022-11-10T12:04:35.971Z,2.60
2022-11-10T12:07:49.374Z,2.85
2022-11-10T12:10:52.175Z,2.42
2022-11-10T12:13:51.960Z,2.28
2022-11-10T12:16:39.870Z,2.75
2022-11-10T12:19:33.638Z,2.10
2022-11-10T12:22:26.552Z,2.67
2022-11-10T12:25:17.942Z,2.53
2022-11-10T12:28:23.916Z,2.42
2022-11-10T12:31:17.465Z,2.63
2022-11-10T12:34:21.762Z,2.50
2022-11-10T12:37:14.558Z,2.55
2022-11-10T12:40:18.006Z,2.78
2022-11-10T12:43:34.061Z,2.72
2022-11-10T12:46:22.490Z,2.38
2022-11-10T12:49:23.943Z,2.63
2022-11-10T12:52:33.967Z,2.38
2022-11-10T12:55:22.755Z,2.25
2022-11-10T12:58:13.343Z,2.47
2022-11-10T13:01:06.837Z,2.85
2022-11-10T13:03:59.736Z,2.20
2022-11-10T13:06:58.758Z,2.45
2022-11-10T13:09:47.300Z,2.75
2022-11-10T13:12:35.439Z,2.30
2022-11-10T13:15:42.726Z,2.10
2022-11-10T13:18:35.108Z,2.63
2022-11-10T13:21:53.236Z,2.60
2022-11-10T13:24:43.574Z,2.40
2022-11-10T13:27:37.994Z,2.70
2022-11-10T13:30:42.943Z,2.25
2022-11-10T13:33:34.339Z,2.42
2022-11-10T13:36:41.470Z,2.38
2022-11-10T13:39:33.853Z,2.28
2022-11-10T13:42:25.063Z,2.40
2022-11-10T13:45:38.555Z,2.60
2022-11-10T13:49:01.968Z,2.35
2022-11-10T13:51:57.153Z,2.15
2022-11-10T13:54:54.761Z,2.72
2022-11-10T13:57:53.859Z,2.60
2022-11-10T14:00:42.180Z,2.72
2022-11-10T14:03:47.444Z,2.70
2022-11-10T14:06:46.597Z,2.45
2022-11-10T14:09:36.870Z,2.80
2022-11-10T14:12:57.877Z,2.88
2022-11-10T14:15:50.190Z,2.33
2022-11-10T14:18:56.048Z,2.50
2022-11-10T14:21:56.887Z,2.40
2022-11-10T14:25:11.439Z,2.70
2022-11-10T14:27:59.475Z,2.55
2022-11-10T14:30:56.198Z,2.50
2022-11-10T14:33:44.477Z,2.65
2022-11-10T14:36:32.998Z,2.30
2022-11-10T14:39:22.958Z,2.58
2022-11-10T14:42:15.991Z,2.63
2022-11-10T14:45:18.049Z,2.27
2022-11-10T14:48:07.427Z,2.40
2022-11-10T14:50:55.623Z,2.80
2022-11-10T14:53:48.990Z,2.50
2022-11-10T14:56:42.475Z,2.22
2022-11-10T15:02:20.018Z,2.50
2022-11-10T15:05:08.759Z,2.50
2022-11-10T15:07:59.775Z,2.55
2022-11-10T15:10:49.586Z,2.22
2022-11-10T15:13:40.779Z,2.30
2022-11-10T15:16:38.717Z,2.63
2022-11-10T15:19:50.053Z,2.20
2022-11-10T15:22:37.916Z,2.50
2022-11-10T15:25:29.516Z,2.53
2022-11-10T15:28:24.738Z,2.35
2022-11-10T15:31:14.880Z,2.13
2022-11-10T15:34:06.540Z,2.10
2022-11-10T15:37:12.027Z,3.30
2022-11-10T15:40:47.459Z,2.95
2022-11-10T15:43:35.667Z,3.10
2022-11-10T15:46:25.720Z,3.53
2022-11-10T15:49:45.724Z,3.72
2022-11-10T15:52:34.480Z,3.53
2022-11-10T15:55:23.807Z,4.10
2022-11-10T15:58:24.595Z,4.18
2022-11-10T16:01:13.834Z,3.85
2022-11-10T16:04:02.088Z,3.60
2022-11-10T16:06:50.361Z,3.88
2022-11-10T16:09:38.552Z,3.35
2022-11-10T16:12:26.929Z,3.65
2022-11-10T16:15:18.486Z,4.00
2022-11-10T16:18:16.160Z,3.45
2022-11-10T16:21:06.773Z,3.85
2022-11-10T16:23:55.238Z,3.58
2022-11-10T16:26:43.478Z,3.30
2022-11-10T16:29:32.241Z,3.53
2022-11-10T16:32:20.358Z,3.40
2022-11-10T16:35:12.983Z,3.88
2022-11-10T16:38:00.992Z,3.35
2022-11-10T16:41:02.640Z,3.20
2022-11-10T16:49:39.353Z,2.58
2022-11-10T16:52:28.281Z,3.28
2022-11-10T16:55:16.549Z,3.22
2022-11-10T16:58:04.818Z,3.08
2022-11-10T17:00:53.091Z,2.70
2022-11-10T17:03:46.045Z,3.17
2022-11-10T17:06:34.436Z,3.03
2022-11-10T17:09:29.763Z,3.10
2022-11-10T17:12:17.908Z,2.67
2022-11-10T17:15:06.392Z,2.60
2022-11-10T17:17:55.427Z,2.55
2022-11-10T17:20:45.038Z,2.70
2022-11-10T17:23:33.759Z,2.65
2022-11-10T17:26:22.439Z,2.80
2022-11-10T17:29:18.601Z,2.90
2022-11-10T17:32:06.819Z,3.15
2022-11-10T17:34:54.859Z,2.90
2022-11-10T17:37:43.081Z,2.63
2022-11-10T17:40:32.367Z,2.95
2022-11-10T17:43:20.695Z,2.05
2022-11-10T17:46:09.490Z,2.15
2022-11-10T17:49:02.750Z,2.30
2022-11-10T17:51:51.485Z,3.22
2022-11-10T17:54:39.857Z,2.72
2022-11-10T17:57:28.086Z,2.30
2022-11-10T18:00:17.261Z,2.08
2022-11-10T18:03:09.667Z,2.10
2022-11-10T18:05:58.357Z,1.95
2022-11-10T18:08:47.078Z,2.10
2022-11-10T18:11:35.565Z,2.40
2022-11-10T18:14:24.013Z,2.15
2022-11-10T18:17:12.246Z,2.70
2022-11-10T18:20:00.376Z,2.35
2022-11-10T18:22:48.615Z,2.20
2022-11-10T18:25:37.221Z,2.35
2022-11-10T18:28:25.538Z,2.17
2022-11-10T18:31:14.631Z,2.13
2022-11-10T18:34:02.617Z,2.33
2022-11-10T18:36:53.344Z,2.38
2022-11-10T18:39:41.477Z,2.17
2022-11-10T18:42:29.936Z,2.38
2022-11-10T18:45:18.125Z,1.67
2022-11-10T18:48:06.807Z,2.08
2022-11-10T18:50:54.751Z,2.38
2022-11-10T18:53:43.094Z,2.00
2022-11-10T18:56:31.365Z,2.42
2022-11-10T18:59:19.496Z,2.22
2022-11-10T19:02:08.036Z,2.25
2022-11-10T19:04:56.363Z,2.00
2022-11-10T19:07:44.820Z,1.90
2022-11-10T19:10:32.833Z,2.30
2022-11-10T19:13:21.590Z,1.67
2022-11-10T19:16:10.962Z,2.10
2022-11-10T19:18:59.157Z,2.08
2022-11-10T19:21:47.129Z,2.70
2022-11-10T19:24:53.635Z,1.80
2022-11-10T19:27:43.403Z,2.75
2022-11-10T19:30:31.723Z,2.28
2022-11-10T19:33:20.213Z,2.30
2022-11-10T19:36:10.575Z,2.13
2022-11-10T19:38:58.896Z,1.80
2022-11-10T19:41:47.216Z,1.90
2022-11-10T19:44:35.468Z,2.40
2022-11-10T19:47:23.588Z,1.90
2022-11-10T19:50:11.642Z,1.70
2022-11-10T19:52:59.915Z,2.13
2022-11-10T19:55:48.042Z,1.67
2022-11-10T19:58:39.542Z,1.90
2022-11-10T20:01:28.363Z,1.83
2022-11-10T20:04:16.731Z,1.70
2022-11-10T20:07:22.802Z,1.50
2022-11-10T20:10:11.276Z,1.70
2022-11-10T20:12:59.641Z,1.90
2022-11-10T20:15:48.176Z,1.50
2022-11-10T20:18:36.548Z,2.03
2022-11-10T20:21:25.121Z,1.80
2022-11-10T20:24:14.107Z,1.77
2022-11-10T20:27:03.049Z,1.83
2022-11-10T20:29:51.246Z,1.75
2022-11-10T20:32:39.369Z,1.85
2022-11-10T20:35:27.487Z,2.65
2022-11-10T20:38:17.940Z,2.00
2022-11-10T20:41:11.553Z,2.03
2022-11-10T20:43:59.478Z,1.80
2022-11-10T20:46:54.348Z,2.22
2022-11-10T20:49:43.128Z,2.17
2022-11-10T20:52:31.539Z,2.05
2022-11-10T20:55:36.984Z,2.67
2022-11-10T20:58:28.225Z,1.73
2022-11-10T21:01:18.379Z,1.70
2022-11-10T21:04:07.411Z,1.70
2022-11-10T21:06:55.857Z,1.50
2022-11-10T21:09:44.397Z,2.20
2022-11-10T21:12:50.981Z,1.80
2022-11-10T21:15:40.545Z,1.58
2022-11-10T21:18:30.987Z,1.88
2022-11-10T21:21:24.342Z,1.40
2022-11-10T21:24:13.052Z,2.05
2022-11-10T21:27:01.608Z,1.88
2022-11-10T21:29:50.779Z,2.08
2022-11-10T21:32:39.751Z,1.80
2022-11-10T21:35:28.140Z,1.75
2022-11-10T21:38:16.431Z,2.08
2022-11-10T21:41:05.184Z,1.85
2022-11-10T21:43:53.670Z,1.83
2022-11-10T21:46:42.159Z,1.73
2022-11-10T21:49:31.483Z,1.60
2022-11-10T21:52:19.840Z,1.67
2022-11-10T21:55:08.978Z,1.33
2022-11-10T21:58:01.941Z,1.70
2022-11-10T22:00:50.307Z,1.83
2022-11-10T22:03:38.974Z,2.05
2022-11-10T22:06:47.048Z,1.35
2022-11-10T22:09:55.223Z,1.48
2022-11-10T22:13:01.835Z,1.60
2022-11-10T22:16:08.993Z,1.67
2022-11-10T22:18:57.467Z,1.75
2022-11-10T22:21:45.746Z,1.77
2022-11-10T22:24:34.958Z,1.90
2022-11-10T22:27:23.664Z,2.45
2022-11-10T22:30:12.542Z,2.20
2022-11-10T22:33:21.339Z,2.47
2022-11-10T22:36:15.845Z,1.60
2022-11-10T22:39:05.479Z,1.70
2022-11-10T22:42:12.117Z,1.80
2022-11-10T22:45:00.693Z,2.33
2022-11-10T22:48:06.848Z,2.30
2022-11-10T22:50:58.153Z,1.95
2022-11-10T22:53:46.146Z,2.17
2022-11-10T22:56:34.555Z,1.70
2022-11-10T22:59:22.823Z,2.20
2022-11-10T23:02:11.104Z,2.15
2022-11-10T23:04:59.252Z,1.38
2022-11-10T23:07:47.662Z,2.00
2022-11-10T23:10:38.252Z,1.80
2022-11-10T23:13:26.691Z,1.40
2022-11-10T23:16:28.118Z,1.50
2022-11-10T23:19:16.178Z,1.38
2022-11-10T23:22:04.080Z,1.75
2022-11-10T23:24:57.050Z,1.95
2022-11-10T23:27:45.786Z,1.42
2022-11-10T23:30:34.948Z,1.60
2022-11-10T23:33:23.100Z,2.00
2022-11-10T23:36:13.154Z,1.40
2022-11-10T23:39:04.266Z,1.90
2022-11-10T23:41:52.257Z,1.58
2022-11-10T23:44:40.310Z,2.00
2022-11-10T23:47:28.345Z,2.25
2022-11-10T23:50:16.403Z,1.30
2022-11-10T23:53:04.902Z,1.63
2022-11-10T23:55:59.918Z,1.45
2022-11-10T23:58:48.454Z,1.92
